Time;durP1;ratioP1;P1;durP2;ratioP2;P2;SDS_P1;SDS_P2;PMS_P1;PMS_P2;Temp;Humidity;BMP_temperature;BMP_pressure;BME280_temperature;BME280_humidity;BME280_pressure;Samples;Min_cycle;Max_cycle;Signal;HPM_P1;HPM_P2
2022/02/01 00:02:09;;;;;;;;;;;;;;;25.48;19.01;99897.41;5040083;28;1910;-42
2022/02/01 00:04:59;;;;;;;;;;;;;;;25.42;19.16;99890.09;5053641;28;833;-42
2022/02/01 00:07:38;;;;;;;;;;;;;;;25.51;19.02;99896.16;5047331;28;845;-42
2022/02/01 00:12:56;;;;;;;;;;;;;;;26.22;18.53;99899.03;5056054;28;778;-42
2022/02/01 00:18:03;;;;;;;;;;;;;;;26.01;18.49;99895.38;5056151;28;775;-42
2022/02/01 00:37:09;;;;;;;;;;;;;;;25.96;18.91;99906.72;5017426;28;1287;-41
2022/02/01 00:39:44;;;;;;;;;;;;;;;26.09;18.68;99892.53;5056048;28;797;-42
2022/02/01 00:42:13;;;;;;;;;;;;;;;26.01;18.82;99906.13;5055909;28;1902;-42
2022/02/01 00:44:38;;;;;;;;;;;;;;;26.00;18.92;99901.78;5044694;28;869;-41
2022/02/01 00:47:04;;;;;;;;;;;;;;;26.09;18.72;99906.00;5055687;28;991;-42
2022/02/01 00:49:32;;;;;;;;;;;;;;;26.07;18.97;99905.38;5055102;28;803;-42
2022/02/01 00:51:57;;;;;;;;;;;;;;;26.17;19.02;99897.75;5055494;28;817;-41
2022/02/01 00:54:23;;;;;;;;;;;;;;;26.02;18.91;99892.50;5057458;28;845;-42
2022/02/01 00:56:48;;;;;;;;;;;;;;;26.07;19.07;99888.38;5058995;28;933;-41
2022/02/01 00:59:13;;;;;;;;;;;;;;;26.18;18.77;99890.50;5058519;28;865;-42
2022/02/01 01:01:38;;;;;;;;;;;;;;;26.20;18.90;99887.63;5059368;28;1898;-42
2022/02/01 01:04:04;;;;;;;;;;;;;;;26.34;18.71;99894.78;5059602;28;781;-41
2022/02/01 01:06:29;;;;;;;;;;;;;;;26.38;19.04;99896.06;5059466;28;749;-41
2022/02/01 01:08:54;;;;;;;;;;;;;;;26.49;18.71;99888.44;5057625;28;888;-41
2022/02/01 01:11:20;;;;;;;;;;;;;;;26.56;18.75;99875.00;5056612;28;905;-42
2022/02/01 01:16:47;;;;;;;;;;;;;;;26.30;19.04;99869.22;5059154;28;684;-41
2022/02/01 01:38:46;;;;;;;;;;;;;;;26.46;18.76;99865.38;5058658;28;1505;-42
2022/02/01 01:43:51;;;;;;;;;;;;;;;26.39;19.11;99834.88;5057730;28;887;-42
2022/02/01 01:54:16;;;;;;;;;;;;;;;26.39;19.35;99841.09;5058511;28;703;-41
2022/02/01 01:56:41;;;;;;;;;;;;;;;26.35;18.96;99837.13;5058622;28;847;-42
2022/02/01 01:59:07;;;;;;;;;;;;;;;26.51;19.12;99838.66;5056784;28;1045;-42
2022/02/01 02:01:32;;;;;;;;;;;;;;;26.55;18.73;99839.09;5039275;28;1902;-42
2022/02/01 02:03:58;;;;;;;;;;;;;;;26.59;19.19;99829.53;5062800;28;1310;-41
2022/02/01 02:06:23;;;;;;;;;;;;;;;26.65;19.32;99828.75;5057430;28;762;-42
2022/02/01 02:08:52;;;;;;;;;;;;;;;26.62;19.13;99823.78;5057977;28;862;-42
2022/02/01 02:16:36;;;;;;;;;;;;;;;26.80;18.03;99821.53;5052587;28;643;-42
2022/02/01 02:19:02;;;;;;;;;;;;;;;26.99;17.42;99823.44;5058232;28;870;-43
2022/02/01 02:21:28;;;;;;;;;;;;;;;27.23;17.17;99826.63;5057404;28;1979;-42
2022/02/01 02:23:53;;;;;;;;;;;;;;;27.43;16.62;99827.66;5058365;28;903;-41
2022/02/01 02:26:18;;;;;;;;;;;;;;;27.62;16.64;99834.09;5057411;28;934;-41
2022/02/01 02:28:45;;;;;;;;;;;;;;;27.69;16.55;99834.13;5057629;28;829;-42
2022/02/01 02:31:10;;;;;;;;;;;;;;;27.81;16.12;99829.75;5058225;28;827;-42
2022/02/01 02:33:35;;;;;;;;;;;;;;;27.82;15.80;99828.72;5058063;28;893;-41
2022/02/01 02:36:07;;;;;;;;;;;;;;;27.49;16.08;99824.94;5057329;28;841;-43
2022/02/01 02:41:09;;;;;;;;;;;;;;;27.21;16.58;99844.06;5057404;28;1959;-42
2022/02/01 02:46:22;;;;;;;;;;;;;;;27.60;16.36;99841.59;5053483;28;612;-42
2022/02/01 02:48:48;;;;;;;;;;;;;;;27.67;16.08;99837.00;5057371;28;825;-42
2022/02/01 02:51:13;;;;;;;;;;;;;;;27.81;16.19;99828.94;5054129;28;893;-42
2022/02/01 02:53:38;;;;;;;;;;;;;;;27.77;16.21;99831.22;5057656;28;747;-42
2022/02/01 02:56:07;;;;;;;;;;;;;;;27.84;15.91;99836.63;5057580;28;789;-42
2022/02/01 02:58:32;;;;;;;;;;;;;;;27.90;16.13;99827.66;5057096;28;834;-42
2022/02/01 03:00:57;;;;;;;;;;;;;;;27.95;15.71;99835.13;5056418;28;1898;-42
2022/02/01 03:03:24;;;;;;;;;;;;;;;28.09;15.60;99831.34;5057010;28;881;-42
2022/02/01 03:05:49;;;;;;;;;;;;;;;28.15;15.85;99839.66;5056759;28;971;-41
2022/02/01 03:08:14;;;;;;;;;;;;;;;28.24;15.49;99835.69;5057517;28;869;-42
2022/02/01 03:10:40;;;;;;;;;;;;;;;28.20;15.31;99834.44;5057691;28;794;-41
2022/02/01 03:13:13;;;;;;;;;;;;;;;28.26;15.56;99841.69;5056711;28;865;-42
2022/02/01 03:15:55;;;;;;;;;;;;;;;28.41;15.10;99838.75;5056724;28;923;-42
2022/02/01 03:21:04;;;;;;;;;;;;;;;27.84;14.96;99844.72;5056442;28;1918;-42
2022/02/01 03:23:29;;;;;;;;;;;;;;;27.45;15.43;99847.19;5056868;28;889;-42
2022/02/01 03:25:54;;;;;;;;;;;;;;;27.40;16.14;99845.13;5057457;28;777;-41
2022/02/01 03:28:20;;;;;;;;;;;;;;;27.65;15.67;99843.66;5056939;28;790;-42
2022/02/01 03:30:45;;;;;;;;;;;;;;;27.59;16.06;99846.16;5056395;28;942;-42
2022/02/01 03:33:10;;;;;;;;;;;;;;;27.77;15.63;99846.59;5054800;28;913;-42
2022/02/01 03:35:35;;;;;;;;;;;;;;;27.78;15.62;99846.38;5055960;28;794;-42
2022/02/01 03:38:02;;;;;;;;;;;;;;;27.85;15.83;99836.41;5056824;28;974;-42
2022/02/01 03:40:27;;;;;;;;;;;;;;;27.81;15.74;99839.75;5056123;28;1894;-43
2022/02/01 03:42:53;;;;;;;;;;;;;;;27.92;15.17;99849.06;5054216;28;818;-42
2022/02/01 03:45:18;;;;;;;;;;;;;;;27.33;14.75;99849.66;5047600;28;1390;-42
2022/02/01 03:47:43;;;;;;;;;;;;;;;27.33;14.25;99846.97;5060962;28;798;-42
2022/02/01 03:50:09;;;;;;;;;;;;;;;27.47;14.39;99839.72;5056207;28;807;-42
2022/02/01 03:52:34;;;;;;;;;;;;;;;27.65;14.16;99843.66;5055419;28;1057;-42
2022/02/01 03:54:59;;;;;;;;;;;;;;;27.68;14.35;99841.41;5056977;28;1338;-42
2022/02/01 03:57:25;;;;;;;;;;;;;;;27.12;13.19;99848.81;5056575;28;809;-43
2022/02/01 03:59:50;;;;;;;;;;;;;;;25.52;13.35;99844.84;5055877;28;905;-43
2022/02/01 04:02:15;;;;;;;;;;;;;;;24.66;14.05;99839.19;5030227;28;1955;-43
2022/02/01 04:04:41;;;;;;;;;;;;;;;24.11;14.41;99836.78;5055302;28;820;-42
2022/02/01 04:07:06;;;;;;;;;;;;;;;23.88;14.73;99836.84;5055465;28;861;-43
2022/02/01 04:09:32;;;;;;;;;;;;;;;23.66;15.01;99834.88;5055525;28;735;-42
2022/02/01 04:11:59;;;;;;;;;;;;;;;23.39;15.64;99838.94;5037709;28;846;-42
2022/02/01 04:14:28;;;;;;;;;;;;;;;23.06;15.51;99838.16;5055636;28;904;-42
2022/02/01 04:16:53;;;;;;;;;;;;;;;22.68;16.02;99832.69;5056075;28;821;-44
2022/02/01 04:19:18;;;;;;;;;;;;;;;23.83;16.28;99840.94;5056048;28;758;-42
2022/02/01 04:21:57;;;;;;;;;;;;;;;24.95;15.81;99839.31;5051627;28;1971;-42
2022/02/01 04:24:23;;;;;;;;;;;;;;;25.46;15.79;99844.78;5056507;28;789;-41
2022/02/01 04:26:48;;;;;;;;;;;;;;;25.70;16.03;99840.03;5055613;28;829;-41
2022/02/01 04:29:13;;;;;;;;;;;;;;;25.89;16.01;99839.31;5051266;28;897;-42
2022/02/01 04:31:39;;;;;;;;;;;;;;;25.95;16.10;99835.03;5055593;28;934;-42
2022/02/01 04:34:04;;;;;;;;;;;;;;;26.04;15.99;99843.78;5053870;28;858;-43
2022/02/01 04:36:29;;;;;;;;;;;;;;;26.14;16.17;99846.94;5056123;28;766;-41
2022/02/01 04:38:57;;;;;;;;;;;;;;;26.27;16.08;99846.22;5055746;28;944;-41
2022/02/01 04:41:26;;;;;;;;;;;;;;;26.27;16.21;99846.22;5055877;28;1945;-42
2022/02/01 04:43:52;;;;;;;;;;;;;;;26.33;16.15;99832.97;5055559;28;895;-41
2022/02/01 04:46:17;;;;;;;;;;;;;;;26.40;15.84;99836.53;5050692;28;897;-42
2022/02/01 04:48:43;;;;;;;;;;;;;;;26.50;15.73;99841.56;5055316;28;786;-41
2022/02/01 04:51:08;;;;;;;;;;;;;;;26.36;15.99;99819.91;5055703;28;861;-42
2022/02/01 04:53:33;;;;;;;;;;;;;;;26.50;15.90;99838.84;5055648;28;798;-41
2022/02/01 04:55:59;;;;;;;;;;;;;;;26.62;16.21;99842.66;5055168;28;801;-41
2022/02/01 04:58:24;;;;;;;;;;;;;;;26.58;16.93;99840.53;5054260;28;1347;-42
2022/02/01 05:00:50;;;;;;;;;;;;;;;26.45;17.20;99842.16;5055457;28;1902;-41
2022/02/01 05:03:15;;;;;;;;;;;;;;;26.49;17.29;99840.72;5050637;28;749;-42
2022/02/01 05:05:40;;;;;;;;;;;;;;;26.50;17.50;99842.41;5055894;28;813;-43
2022/02/01 05:08:10;;;;;;;;;;;;;;;26.64;17.54;99848.66;5055346;28;734;-43
2022/02/01 05:10:35;;;;;;;;;;;;;;;26.57;17.64;99836.19;5055856;28;772;-46
2022/02/01 05:18:26;;;;;;;;;;;;;;;26.47;16.89;99828.47;5075637;28;1341;-34
2022/02/01 05:20:57;;;;;;;;;;;;;;;26.92;16.62;99827.16;5072870;28;813;-38
2022/02/01 05:23:23;;;;;;;;;;;;;;;27.08;16.35;99825.97;5073417;28;853;-38
2022/02/01 05:25:49;;;;;;;;;;;;;;;27.16;16.45;99828.47;5071697;28;971;-37
2022/02/01 05:28:15;;;;;;;;;;;;;;;27.05;16.84;99824.53;5073441;28;869;-37
2022/02/01 05:30:40;;;;;;;;;;;;;;;27.32;16.50;99829.97;5073446;28;927;-37
2022/02/01 05:33:05;;;;;;;;;;;;;;;27.34;16.28;99827.06;5072874;28;853;-38
2022/02/01 05:35:31;;;;;;;;;;;;;;;27.25;16.56;99832.66;5072936;28;796;-37
2022/02/01 05:37:56;;;;;;;;;;;;;;;27.41;16.49;99827.06;5072803;28;1905;-37
2022/02/01 05:40:22;;;;;;;;;;;;;;;27.48;16.26;99825.16;5072837;28;785;-38
2022/02/01 05:42:59;;;;;;;;;;;;;;;27.45;16.40;99823.72;5072807;28;961;-40
2022/02/01 05:45:25;;;;;;;;;;;;;;;27.49;16.30;99826.84;5072296;28;963;-40
2022/02/01 05:47:50;;;;;;;;;;;;;;;27.54;16.63;99831.63;5072688;28;898;-39
2022/02/01 05:50:15;;;;;;;;;;;;;;;27.71;16.60;99829.34;5072189;28;837;-41
2022/02/01 05:52:41;;;;;;;;;;;;;;;27.75;16.67;99830.59;5072531;28;997;-40
2022/02/01 05:55:06;;;;;;;;;;;;;;;27.70;16.82;99831.22;5072253;28;826;-41
2022/02/01 05:57:31;;;;;;;;;;;;;;;27.71;16.34;99835.56;5072978;28;1894;-42
2022/02/01 05:59:57;;;;;;;;;;;;;;;27.82;16.59;99841.38;5071992;28;836;-40
2022/02/01 06:02:22;;;;;;;;;;;;;;;27.82;16.51;99836.81;5071223;28;762;-40
2022/02/01 06:04:47;;;;;;;;;;;;;;;27.80;16.86;99838.06;5071612;28;818;-40
2022/02/01 06:07:13;;;;;;;;;;;;;;;27.88;16.44;99837.84;5054087;28;1516;-41
2022/02/01 06:09:38;;;;;;;;;;;;;;;27.87;16.77;99831.63;5072140;28;930;-38
2022/02/01 06:12:03;;;;;;;;;;;;;;;27.97;16.79;99823.06;5072303;28;771;-43
2022/02/01 06:14:29;;;;;;;;;;;;;;;28.03;17.06;99826.78;5047636;28;1177;-44
2022/02/01 06:16:54;;;;;;;;;;;;;;;28.02;17.06;99819.72;5073278;28;1918;-37
2022/02/01 06:19:19;;;;;;;;;;;;;;;28.06;16.87;99817.44;5092396;28;1496;-40
2022/02/01 06:21:45;;;;;;;;;;;;;;;28.04;16.33;99827.63;5092435;28;745;-40
2022/02/01 06:24:10;;;;;;;;;;;;;;;27.94;16.13;99820.81;5092193;28;881;-38
2022/02/01 06:26:36;;;;;;;;;;;;;;;27.90;15.93;99822.25;5092308;28;830;-42
2022/02/01 06:29:02;;;;;;;;;;;;;;;27.84;15.53;99834.72;5075945;28;991;-42
2022/02/01 06:31:27;;;;;;;;;;;;;;;27.82;15.00;99827.88;5077108;28;821;-41
2022/02/01 06:33:52;;;;;;;;;;;;;;;27.77;14.72;99824.97;5078684;28;833;-42
2022/02/01 06:36:17;;;;;;;;;;;;;;;27.85;14.72;99822.03;5078330;28;1969;-40
2022/02/01 06:38:43;;;;;;;;;;;;;;;27.63;14.96;99823.09;5078947;28;761;-42
2022/02/01 06:41:08;;;;;;;;;;;;;;;27.69;15.61;99824.16;5062553;28;1536;-40
2022/02/01 06:43:33;;;;;;;;;;;;;;;27.97;15.82;99830.34;5071653;28;1584;-37
2022/02/01 06:45:59;;;;;;;;;;;;;;;28.22;15.88;99832.34;5058025;28;907;-38
2022/02/01 06:48:24;;;;;;;;;;;;;;;28.16;16.38;99825.09;5073376;28;1561;-39
2022/02/01 06:50:51;;;;;;;;;;;;;;;28.23;16.74;99831.31;5070763;28;1360;-37
2022/02/01 06:53:19;;;;;;;;;;;;;;;28.26;16.68;99844.41;5078618;28;1159;-40
2022/02/01 06:55:56;;;;;;;;;;;;;;;28.13;16.67;99837.16;5075280;28;1231;-36
2022/02/01 06:58:21;;;;;;;;;;;;;;;28.16;16.70;99842.13;5080532;28;1957;-36
2022/02/01 07:00:47;;;;;;;;;;;;;;;28.30;16.69;99844.81;5077216;28;1326;-47
2022/02/01 07:03:12;;;;;;;;;;;;;;;28.26;17.08;99841.69;5069292;28;1572;-49
2022/02/01 07:05:37;;;;;;;;;;;;;;;28.35;17.18;99839.63;5069260;28;1369;-48
2022/02/01 07:08:03;;;;;;;;;;;;;;;28.37;17.25;99840.25;5077601;28;919;-47
2022/02/01 07:10:28;;;;;;;;;;;;;;;28.31;17.27;99847.28;5072896;28;1398;-43
2022/02/01 07:12:53;;;;;;;;;;;;;;;28.47;17.15;99843.34;5067936;28;1504;-44
2022/02/01 07:15:19;;;;;;;;;;;;;;;28.38;17.13;99841.09;5075508;28;1196;-43
2022/02/01 07:17:45;;;;;;;;;;;;;;;28.39;17.12;99840.03;5074073;28;1909;-37
2022/02/01 07:20:11;;;;;;;;;;;;;;;28.42;16.85;99842.31;5073662;28;1279;-43
2022/02/01 07:22:37;;;;;;;;;;;;;;;27.45;17.65;99850.72;5072201;28;1369;-44
2022/02/01 07:25:12;;;;;;;;;;;;;;;27.13;18.20;99843.22;5071368;28;1191;-43
2022/02/01 07:27:40;;;;;;;;;;;;;;;27.72;18.05;99848.06;5049690;28;1286;-45
2022/02/01 07:30:10;;;;;;;;;;;;;;;28.03;17.63;99858.41;5075925;28;1164;-41
2022/02/01 07:32:35;;;;;;;;;;;;;;;28.16;17.23;99850.25;5074969;28;1278;-42
2022/02/01 07:35:01;;;;;;;;;;;;;;;28.22;17.31;99843.19;5076400;28;1398;-42
2022/02/01 07:37:26;;;;;;;;;;;;;;;28.30;17.46;99855.63;5070472;28;1902;-41
2022/02/01 07:39:51;;;;;;;;;;;;;;;28.37;17.30;99859.19;5076176;28;864;-41
2022/02/01 07:42:18;;;;;;;;;;;;;;;28.39;17.10;99854.41;5074977;28;1378;-42
2022/02/01 07:44:44;;;;;;;;;;;;;;;28.52;17.22;99853.50;5066260;28;1270;-42
2022/02/01 07:47:17;;;;;;;;;;;;;;;28.60;17.00;99850.56;5062369;28;1449;-43
2022/02/01 07:49:42;;;;;;;;;;;;;;;28.70;16.70;99857.38;5070151;28;1371;-43
2022/02/01 07:52:08;;;;;;;;;;;;;;;28.27;16.85;99856.91;5071903;28;1618;-43
2022/02/01 07:54:33;;;;;;;;;;;;;;;27.69;17.70;99847.66;5056290;28;1406;-43
2022/02/01 07:56:58;;;;;;;;;;;;;;;27.64;17.81;99853.66;5060171;28;1955;-43
2022/02/01 07:59:23;;;;;;;;;;;;;;;28.07;17.75;99862.34;5070275;28;1493;-43
2022/02/01 08:01:49;;;;;;;;;;;;;;;28.40;17.22;99869.56;5071103;28;1247;-43
2022/02/01 08:04:14;;;;;;;;;;;;;;;28.36;17.26;99868.34;5077429;28;806;-43
2022/02/01 08:06:40;;;;;;;;;;;;;;;28.41;16.93;99860.41;5074199;28;1390;-43
2022/02/01 08:09:19;;;;;;;;;;;;;;;28.48;16.89;99860.38;5074226;28;1284;-41
2022/02/01 08:11:44;;;;;;;;;;;;;;;28.55;17.27;99869.31;5067551;28;1271;-42
2022/02/01 08:17:31;;;;;;;;;;;;;;;28.68;17.02;99875.69;5072567;28;1993;-42
2022/02/01 08:19:59;;;;;;;;;;;;;;;28.82;16.71;99881.88;5075079;28;1450;-42
2022/02/01 08:22:36;;;;;;;;;;;;;;;28.98;16.89;99874.34;5067727;28;1220;-42
2022/02/01 08:25:02;;;;;;;;;;;;;;;28.67;16.91;99883.00;5070346;28;1366;-43
2022/02/01 08:27:27;;;;;;;;;;;;;;;28.17;17.37;99880.84;5070427;28;1323;-42
2022/02/01 08:29:52;;;;;;;;;;;;;;;27.85;18.06;99868.00;5055194;28;1137;-43
2022/02/01 08:32:17;;;;;;;;;;;;;;;28.35;17.43;99866.66;5076053;28;1346;-42
2022/02/01 08:34:43;;;;;;;;;;;;;;;28.53;17.28;99867.88;5075153;28;1536;-42
2022/02/01 08:37:08;;;;;;;;;;;;;;;28.77;17.18;99881.69;5077188;28;1953;-43
2022/02/01 08:39:33;;;;;;;;;;;;;;;28.90;16.96;99886.22;5077492;28;941;-43
2022/02/01 08:41:59;;;;;;;;;;;;;;;28.91;16.98;99887.91;5066842;28;1437;-43
2022/02/01 08:44:28;;;;;;;;;;;;;;;29.05;16.92;99888.66;5073802;28;958;-43
2022/02/01 08:46:53;;;;;;;;;;;;;;;29.09;16.83;99889.91;5072150;28;1406;-43
2022/02/01 08:49:19;;;;;;;;;;;;;;;29.20;16.73;99893.78;5067100;28;1271;-43
2022/02/01 08:51:45;;;;;;;;;;;;;;;29.18;16.70;99902.13;5060678;28;1414;-42
2022/02/01 08:54:18;;;;;;;;;;;;;;;29.25;16.49;99893.13;5071461;28;1145;-42
2022/02/01 08:59:27;;;;;;;;;;;;;;;29.20;16.52;99902.75;5070964;28;1398;-42
2022/02/01 09:01:53;;;;;;;;;;;;;;;29.21;16.61;99895.47;5065517;28;1584;-46
2022/02/01 09:04:18;;;;;;;;;;;;;;;29.19;16.54;99898.38;5064307;28;1260;-46
2022/02/01 09:06:43;;;;;;;;;;;;;;;29.25;16.67;99899.38;5076004;28;822;-35
2022/02/01 09:09:09;;;;;;;;;;;;;;;29.33;16.61;99903.69;5068371;28;1531;-41
2022/02/01 09:11:34;;;;;;;;;;;;;;;29.52;16.52;99898.34;5075932;28;1211;-42
2022/02/01 09:13:59;;;;;;;;;;;;;;;29.43;16.30;99904.03;5049898;28;1177;-42
2022/02/01 09:16:25;;;;;;;;;;;;;;;29.51;16.54;99902.13;5074098;28;1913;-41
2022/02/01 09:18:50;;;;;;;;;;;;;;;29.63;16.49;99896.88;5067450;28;1252;-42
2022/02/01 09:21:15;;;;;;;;;;;;;;;29.51;16.42;99897.50;5070936;28;1208;-41
2022/02/01 09:23:41;;;;;;;;;;;;;;;29.56;16.63;99891.47;5074578;28;1200;-42
2022/02/01 09:26:06;;;;;;;;;;;;;;;29.61;16.30;99891.66;5067991;28;1207;-42
2022/02/01 09:28:32;;;;;;;;;;;;;;;29.56;16.48;99891.47;5063358;28;1194;-42
2022/02/01 09:30:58;;;;;;;;;;;;;;;29.62;16.56;99892.47;5067355;28;1014;-41
2022/02/01 09:33:23;;;;;;;;;;;;;;;29.63;16.40;99878.69;5067771;28;1274;-41
2022/02/01 09:35:48;;;;;;;;;;;;;;;29.67;16.46;99876.38;5067906;28;1600;-41
2022/02/01 09:38:15;;;;;;;;;;;;;;;29.08;16.98;99877.38;5067774;28;1973;-42
2022/02/01 09:40:41;;;;;;;;;;;;;;;28.61;17.23;99864.94;5070274;28;1236;-41
2022/02/01 09:43:06;;;;;;;;;;;;;;;28.76;17.46;99866.53;5074973;28;1222;-42
2022/02/01 09:45:36;;;;;;;;;;;;;;;29.21;17.18;99873.78;5067439;28;1330;-42
2022/02/01 09:48:01;;;;;;;;;;;;;;;29.52;16.76;99868.56;5070491;28;1248;-42
2022/02/01 09:50:27;;;;;;;;;;;;;;;29.55;16.82;99859.97;5069788;28;1623;-42
2022/02/01 09:52:52;;;;;;;;;;;;;;;29.71;16.75;99853.22;5066273;28;1518;-42
2022/02/01 09:55:17;;;;;;;;;;;;;;;29.77;16.80;99852.31;5066041;28;1675;-41
2022/02/01 09:57:44;;;;;;;;;;;;;;;29.54;16.93;99844.78;5072913;28;1901;-41
2022/02/01 10:00:15;;;;;;;;;;;;;;;29.69;16.66;99844.47;5074256;28;1593;-42
2022/02/01 10:02:41;;;;;;;;;;;;;;;29.60;16.49;99841.22;5072968;28;1169;-42
2022/02/01 10:05:07;;;;;;;;;;;;;;;29.65;16.45;99841.38;5070176;28;1525;-41
2022/02/01 10:07:32;;;;;;;;;;;;;;;29.69;16.61;99841.75;5077107;28;1524;-42
2022/02/01 10:09:58;;;;;;;;;;;;;;;29.72;16.62;99844.03;5079130;28;1386;-41
2022/02/01 10:12:26;;;;;;;;;;;;;;;29.68;16.71;99840.09;5071727;28;1179;-41
2022/02/01 10:15:16;;;;;;;;;;;;;;;29.80;16.46;99842.91;5076361;28;987;-42
2022/02/01 10:17:50;;;;;;;;;;;;;;;29.78;16.93;99836.91;5071298;28;1975;-41
2022/02/01 10:20:15;;;;;;;;;;;;;;;29.80;16.79;99824.75;5077726;28;1149;-41
2022/02/01 10:22:41;;;;;;;;;;;;;;;28.58;17.79;99817.47;5072497;28;1232;-41
2022/02/01 10:25:29;;;;;;;;;;;;;;;28.01;18.44;99814.53;5072298;28;1564;-41
2022/02/01 10:27:57;;;;;;;;;;;;;;;28.60;17.95;99817.25;5071152;28;1282;-41
2022/02/01 10:30:26;;;;;;;;;;;;;;;29.08;17.57;99802.41;5073957;28;1430;-41
2022/02/01 10:37:55;;;;;;;;;;;;;;;29.39;17.35;99802.59;5061985;28;1969;-42
2022/02/01 10:40:21;;;;;;;;;;;;;;;29.54;17.16;99788.72;5078097;28;1198;-42
2022/02/01 10:42:51;;;;;;;;;;;;;;;29.58;17.40;99789.06;5069189;28;1207;-42
2022/02/01 10:45:17;;;;;;;;;;;;;;;29.74;17.04;99785.00;5066223;28;1326;-42
2022/02/01 10:47:43;;;;;;;;;;;;;;;29.77;17.20;99779.13;5060153;28;875;-41
2022/02/01 10:50:09;;;;;;;;;;;;;;;29.87;17.29;99781.31;5067201;28;1363;-42
2022/02/01 10:52:38;;;;;;;;;;;;;;;29.91;17.07;99784.41;5074651;28;1445;-42
2022/02/01 10:55:05;;;;;;;;;;;;;;;29.86;17.13;99779.66;5070739;28;1355;-41
2022/02/01 10:57:30;;;;;;;;;;;;;;;29.85;17.14;99785.28;5077834;28;1898;-42
2022/02/01 10:59:55;;;;;;;;;;;;;;;29.88;17.20;99776.72;5071531;28;1422;-41
2022/02/01 11:02:21;;;;;;;;;;;;;;;29.82;17.05;99779.28;5071763;28;1472;-41
2022/02/01 11:04:47;;;;;;;;;;;;;;;29.83;17.16;99769.25;5059678;28;865;-41
2022/02/01 11:07:12;;;;;;;;;;;;;;;28.78;18.09;99767.00;5047215;28;1252;-41
2022/02/01 11:09:37;;;;;;;;;;;;;;;28.43;18.59;99760.94;5070883;28;1513;-41
2022/02/01 11:12:06;;;;;;;;;;;;;;;28.94;17.97;99761.06;5054233;28;1450;-42
2022/02/01 11:14:36;;;;;;;;;;;;;;;29.36;17.73;99759.72;5067725;28;1382;-41
2022/02/01 11:17:02;;;;;;;;;;;;;;;29.39;17.74;99763.84;5075031;28;1909;-42
2022/02/01 11:19:28;;;;;;;;;;;;;;;29.43;17.69;99752.31;5072002;28;1362;-42
2022/02/01 11:21:55;;;;;;;;;;;;;;;29.53;17.60;99754.53;5073858;28;1456;-42
2022/02/01 11:24:33;;;;;;;;;;;;;;;29.57;17.63;99744.91;5076472;28;1493;-42
2022/02/01 11:27:14;;;;;;;;;;;;;;;29.63;17.67;99743.19;5076401;28;1275;-41
2022/02/01 11:30:00;;;;;;;;;;;;;;;29.56;17.44;99748.66;5076082;28;1307;-42
2022/02/01 11:32:32;;;;;;;;;;;;;;;29.53;17.72;99740.16;5072603;28;1468;-42
2022/02/01 11:35:01;;;;;;;;;;;;;;;29.51;17.61;99750.41;5054207;28;1371;-42
2022/02/01 11:37:26;;;;;;;;;;;;;;;29.56;17.49;99742.44;5077656;28;2009;-42
2022/02/01 11:39:53;;;;;;;;;;;;;;;29.48;17.60;99740.00;5063956;28;1424;-42
2022/02/01 11:42:19;;;;;;;;;;;;;;;29.60;17.36;99743.66;5073799;28;1418;-41
2022/02/01 11:44:44;;;;;;;;;;;;;;;29.69;17.53;99746.91;5069867;28;1609;-41
2022/02/01 11:47:21;;;;;;;;;;;;;;;29.64;17.46;99730.47;5072776;28;1278;-43
2022/02/01 11:49:54;;;;;;;;;;;;;;;29.78;17.45;99729.28;5075770;28;1097;-41
2022/02/01 11:52:19;;;;;;;;;;;;;;;29.66;17.41;99736.50;5068986;28;1180;-43
2022/02/01 11:54:47;;;;;;;;;;;;;;;29.76;17.38;99734.09;5077281;28;781;-42
2022/02/01 11:57:13;;;;;;;;;;;;;;;29.67;17.36;99733.56;5074067;28;1914;-42
2022/02/01 11:59:55;;;;;;;;;;;;;;;29.15;17.90;99733.81;5070390;28;1525;-42
2022/02/01 12:02:22;;;;;;;;;;;;;;;28.33;18.64;99736.22;5075058;28;1227;-41
2022/02/01 12:04:48;;;;;;;;;;;;;;;28.55;18.88;99736.75;5069183;28;1347;-41
2022/02/01 12:07:14;;;;;;;;;;;;;;;28.93;18.32;99747.72;5073614;28;1418;-42
2022/02/01 12:09:40;;;;;;;;;;;;;;;29.22;18.17;99750.84;5064501;28;1529;-41
2022/02/01 12:12:06;;;;;;;;;;;;;;;29.37;17.87;99758.66;5072135;28;1323;-42
2022/02/01 12:14:32;;;;;;;;;;;;;;;29.62;17.77;99754.25;5070785;28;1244;-41
2022/02/01 12:16:57;;;;;;;;;;;;;;;29.66;17.70;99774.47;5076335;28;1914;-42
2022/02/01 12:19:46;;;;;;;;;;;;;;;29.73;17.79;99777.91;5075409;28;1564;-42
2022/02/01 12:22:17;;;;;;;;;;;;;;;29.72;17.52;99784.41;5054456;28;1600;-42
2022/02/01 12:24:42;;;;;;;;;;;;;;;29.63;17.56;99774.91;5069311;28;1268;-43
2022/02/01 12:27:07;;;;;;;;;;;;;;;29.69;17.57;99768.59;5071164;28;1268;-42
2022/02/01 12:29:33;;;;;;;;;;;;;;;29.74;17.35;99767.91;5067001;28;1315;-42
2022/02/01 12:32:09;;;;;;;;;;;;;;;29.67;17.33;99768.81;5068818;28;1323;-42
2022/02/01 12:34:34;;;;;;;;;;;;;;;29.72;17.45;99778.97;5066435;28;1441;-42
2022/02/01 12:36:59;;;;;;;;;;;;;;;29.56;17.60;99777.66;5066935;28;1906;-42
2022/02/01 12:39:31;;;;;;;;;;;;;;;29.61;17.59;99785.13;5075005;28;1233;-42
2022/02/01 12:42:07;;;;;;;;;;;;;;;29.66;17.67;99785.31;5071297;28;1401;-42
2022/02/01 12:47:02;;;;;;;;;;;;;;;29.70;17.57;99802.75;5074040;28;1525;-42
2022/02/01 12:49:35;;;;;;;;;;;;;;;29.50;17.79;99787.50;5071327;28;1243;-42
2022/02/01 12:52:00;;;;;;;;;;;;;;;28.27;18.52;99786.59;5054842;28;1594;-42
2022/02/01 12:54:25;;;;;;;;;;;;;;;27.89;18.93;99798.13;5074452;28;1485;-43
2022/02/01 12:56:51;;;;;;;;;;;;;;;28.64;18.64;99810.38;5069160;28;1902;-43
2022/02/01 12:59:18;;;;;;;;;;;;;;;28.98;18.04;99812.91;5074638;28;871;-42
2022/02/01 13:01:44;;;;;;;;;;;;;;;29.17;17.71;99811.09;5074075;28;1133;-43
2022/02/01 13:04:18;;;;;;;;;;;;;;;28.95;18.03;99814.13;5064455;28;1360;-43
2022/02/01 13:06:46;;;;;;;;;;;;;;;29.02;17.78;99824.97;5069858;28;1402;-43
2022/02/01 13:17:13;;;;;;;;;;;;;;;29.49;17.62;99831.91;5071431;28;1979;-42
2022/02/01 13:22:22;;;;;;;;;;;;;;;29.50;17.56;99833.56;5070307;28;1195;-43
2022/02/01 13:24:48;;;;;;;;;;;;;;;29.57;17.82;99839.75;5075083;28;1436;-43
2022/02/01 13:27:17;;;;;;;;;;;;;;;29.54;17.76;99833.94;5075245;28;1604;-44
2022/02/01 13:29:42;;;;;;;;;;;;;;;29.56;17.76;99838.06;5069481;28;1244;-43
2022/02/01 13:32:09;;;;;;;;;;;;;;;29.63;17.85;99838.03;5071270;28;1390;-42
2022/02/01 13:34:34;;;;;;;;;;;;;;;29.58;17.97;99845.97;5079915;28;1610;-42
2022/02/01 13:37:05;;;;;;;;;;;;;;;29.60;17.75;99840.38;5075267;28;1913;-42
2022/02/01 13:39:32;;;;;;;;;;;;;;;29.70;17.66;99838.00;5074012;28;1481;-42
2022/02/01 13:42:02;;;;;;;;;;;;;;;28.82;18.53;99836.72;5071040;28;1267;-43
2022/02/01 13:44:30;;;;;;;;;;;;;;;28.25;19.11;99840.03;5078709;28;850;-43
2022/02/01 13:46:59;;;;;;;;;;;;;;;28.67;18.95;99837.00;5076283;28;1521;-43
2022/02/01 13:49:24;;;;;;;;;;;;;;;29.12;18.46;99839.88;5069952;28;1228;-42
2022/02/01 13:51:54;;;;;;;;;;;;;;;29.28;18.26;99843.97;5076138;28;1387;-42
2022/02/01 13:54:19;;;;;;;;;;;;;;;29.43;18.28;99844.44;5076467;28;843;-41
2022/02/01 13:56:46;;;;;;;;;;;;;;;29.36;17.91;99843.69;5078163;28;1902;-43
2022/02/01 13:59:17;;;;;;;;;;;;;;;29.41;18.14;99841.13;5074151;28;1513;-42
2022/02/01 14:01:44;;;;;;;;;;;;;;;29.40;17.89;99835.91;5073624;28;1149;-42
2022/02/01 14:04:16;;;;;;;;;;;;;;;29.43;17.68;99839.03;5078782;28;1192;-42
2022/02/01 14:34:57;;;;;;;;;;;;;;;29.30;18.09;99847.25;5078559;28;1388;-42
2022/02/01 14:37:40;;;;;;;;;;;;;;;29.36;18.27;99845.56;5074919;28;1967;-42
2022/02/01 14:45:30;;;;;;;;;;;;;;;29.02;18.50;99862.88;5074541;28;1534;-43
2022/02/01 14:47:55;;;;;;;;;;;;;;;29.18;18.24;99857.97;5073790;28;1106;-43
2022/02/01 14:50:20;;;;;;;;;;;;;;;29.31;18.19;99860.56;5073572;28;981;-44
2022/02/01 14:52:46;;;;;;;;;;;;;;;29.45;17.88;99869.44;5077859;28;758;-43
2022/02/01 14:55:13;;;;;;;;;;;;;;;29.48;18.07;99868.16;5077958;28;706;-44
2022/02/01 15:13:42;;;;;;;;;;;;;;;28.11;19.38;99899.56;5071931;28;572;-43
2022/02/01 15:16:07;;;;;;;;;;;;;;;28.26;19.21;99898.47;5071132;28;1239;-43
2022/02/01 15:18:32;;;;;;;;;;;;;;;28.81;18.81;99910.81;5077836;28;2016;-43
2022/02/01 15:20:58;;;;;;;;;;;;;;;29.02;18.55;99917.00;5078027;28;817;-43
2022/02/01 15:23:23;;;;;;;;;;;;;;;29.08;18.20;99918.00;5076992;28;810;-43
2022/02/01 15:25:49;;;;;;;;;;;;;;;29.20;18.17;99927.13;5059521;28;1149;-44
2022/02/01 15:28:14;;;;;;;;;;;;;;;29.32;18.28;99934.56;5077832;28;821;-43